Time;durP1;ratioP1;P1;durP2;ratioP2;P2;SDS_P1;SDS_P2;PMS_P1;PMS_P2;Temp;Humidity;BMP_temperature;BMP_pressure;BME280_temperature;BME280_humidity;BME280_pressure;Samples;Min_cycle;Max_cycle;Signal;HPM_P1;HPM_P2
2023/06/28 00:01:10;;;;;;;17.85;10.50;;;;;;;16.37;89.37;101777.50;4994790;28;20500;-68
2023/06/28 00:03:36;;;;;;;15.57;10.52;;;;;;;16.35;89.54;101779.78;4994558;28;20022;-68
2023/06/28 00:06:01;;;;;;;17.27;10.82;;;;;;;16.39;90.29;101782.75;4994652;28;20114;-69
2023/06/28 00:08:26;;;;;;;17.55;11.05;;;;;;;16.42;88.84;101778.53;4994951;28;20390;-69
2023/06/28 00:10:52;;;;;;;15.13;10.60;;;;;;;16.36;90.67;101777.84;4993435;28;20308;-69
2023/06/28 00:13:18;;;;;;;18.90;10.60;;;;;;;16.37;89.55;101777.50;4994663;28;20081;-69
2023/06/28 00:15:45;;;;;;;17.67;10.32;;;;;;;16.40;88.68;101775.22;4993143;28;20112;-69
2023/06/28 00:18:10;;;;;;;18.15;10.70;;;;;;;16.45;88.91;101775.91;4994524;28;20382;-69
2023/06/28 00:20:35;;;;;;;17.17;10.73;;;;;;;16.42;91.73;101770.13;4994703;28;20117;-69
2023/06/28 00:23:01;;;;;;;19.13;10.32;;;;;;;16.44;91.08;101777.03;4994549;28;20390;-69
2023/06/28 00:25:26;;;;;;;16.02;10.20;;;;;;;16.41;91.60;101780.47;4994667;28;20053;-69
2023/06/28 00:27:52;;;;;;;17.58;10.00;;;;;;;16.42;92.00;101782.13;4994395;28;20117;-69
2023/06/28 00:30:17;;;;;;;18.00;10.68;;;;;;;16.40;91.37;101778.81;4994271;28;20092;-70
2023/06/28 00:32:42;;;;;;;17.80;11.02;;;;;;;16.38;90.34;101781.13;4994600;28;20030;-69
2023/06/28 00:35:08;;;;;;;18.98;10.90;;;;;;;16.34;92.31;101774.53;4994620;28;20050;-69
2023/06/28 00:37:33;;;;;;;19.02;11.07;;;;;;;16.38;92.64;101781.13;4994194;28;20093;-69
2023/06/28 00:39:59;;;;;;;18.40;10.60;;;;;;;16.43;93.33;101783.78;4994056;28;20101;-69
2023/06/28 00:42:25;;;;;;;18.85;10.85;;;;;;;16.44;93.32;101781.78;4994169;28;20022;-70
2023/06/28 00:44:51;;;;;;;19.27;11.40;;;;;;;16.48;94.52;101780.00;4994023;28;20031;-70
2023/06/28 00:47:18;;;;;;;21.58;11.80;;;;;;;16.53;94.51;101779.88;4992767;28;20114;-69
2023/06/28 00:49:44;;;;;;;20.52;11.10;;;;;;;16.52;93.47;101781.81;4994141;28;20023;-69
2023/06/28 00:52:11;;;;;;;18.40;11.15;;;;;;;16.44;95.50;101784.56;4994070;28;20022;-69
2023/06/28 00:54:37;;;;;;;18.20;11.43;;;;;;;16.43;94.22;101780.16;4994031;28;20037;-69
2023/06/28 00:57:03;;;;;;;17.38;10.70;;;;;;;16.36;93.54;101789.00;4993926;28;20034;-69
2023/06/28 00:59:30;;;;;;;19.63;11.10;;;;;;;16.32;92.21;101790.78;4993781;28;20026;-69
2023/06/28 01:01:55;;;;;;;17.00;10.80;;;;;;;16.27;92.74;101785.34;4993745;28;20026;-69
2023/06/28 01:04:21;;;;;;;19.77;11.13;;;;;;;16.24;93.19;101783.19;4993773;28;20029;-69
2023/06/28 01:06:54;;;;;;;18.92;11.52;;;;;;;16.20;93.40;101777.44;4993679;28;20041;-70
2023/06/28 01:09:20;;;;;;;20.33;11.75;;;;;;;16.21;93.83;101784.69;4994131;28;20034;-69
2023/06/28 01:11:48;;;;;;;20.23;12.05;;;;;;;16.20;92.90;101783.03;4993552;28;20031;-70
2023/06/28 01:14:14;;;;;;;18.83;11.35;;;;;;;16.14;92.76;101781.53;4993740;28;20034;-69
2023/06/28 01:16:40;;;;;;;19.17;11.57;;;;;;;16.17;91.85;101780.88;4993643;28;20045;-69
2023/06/28 01:19:08;;;;;;;17.65;11.07;;;;;;;16.17;93.59;101783.66;4993433;28;20022;-69
2023/06/28 01:21:37;;;;;;;17.88;11.73;;;;;;;16.17;94.26;101766.91;4993729;28;20034;-69
2023/06/28 01:24:03;;;;;;;18.88;11.38;;;;;;;16.19;95.44;101775.78;4993597;28;20030;-69
2023/06/28 01:26:29;;;;;;;18.08;11.65;;;;;;;16.16;97.33;101768.88;4992831;28;20034;-70
2023/06/28 01:28:55;;;;;;;19.38;12.07;;;;;;;16.11;99.08;101771.00;4993281;28;20081;-69
2023/06/28 01:31:21;;;;;;;21.08;13.38;;;;;;;16.12;99.34;101767.06;4993399;28;20023;-69
2023/06/28 01:33:48;;;;;;;20.92;12.90;;;;;;;16.08;99.39;101769.69;4993256;28;20026;-69
2023/06/28 01:36:13;;;;;;;19.88;12.40;;;;;;;16.02;99.91;101771.78;4992958;28;20340;-69
2023/06/28 01:38:41;;;;;;;21.15;13.00;;;;;;;15.95;99.54;101765.84;4993182;28;20034;-70
2023/06/28 01:41:08;;;;;;;19.30;12.00;;;;;;;15.92;97.61;101766.47;4973912;28;20034;-69
2023/06/28 01:43:34;;;;;;;20.08;12.60;;;;;;;15.87;96.99;101761.84;4974466;28;20379;-69
2023/06/28 01:46:00;;;;;;;18.52;12.77;;;;;;;15.89;98.55;101764.31;4973830;28;20031;-69
2023/06/28 01:48:26;;;;;;;19.05;12.50;;;;;;;15.87;97.66;101775.00;4974059;28;20573;-69
2023/06/28 01:50:52;;;;;;;19.35;12.48;;;;;;;15.86;97.65;101770.56;4974096;28;20027;-70
2023/06/28 01:53:17;;;;;;;21.33;12.52;;;;;;;15.86;97.19;101770.56;4973991;28;20038;-69
2023/06/28 01:55:43;;;;;;;18.70;12.40;;;;;;;15.87;96.78;101773.03;4997088;28;20080;-70
2023/06/28 01:58:09;;;;;;;19.85;12.50;;;;;;;15.90;95.99;101765.97;5012629;28;20050;-70
2023/06/28 02:00:34;;;;;;;20.95;12.50;;;;;;;15.87;96.84;101766.63;5012829;28;20026;-70
2023/06/28 02:02:59;;;;;;;21.05;12.27;;;;;;;15.88;97.10;101771.03;5012962;28;20057;-69
2023/06/28 02:05:25;;;;;;;19.65;12.60;;;;;;;15.89;97.96;101769.91;5013188;28;20091;-69
2023/06/28 02:07:50;;;;;;;19.90;12.70;;;;;;;15.84;96.84;101765.28;5013037;28;20030;-70
2023/06/28 02:10:18;;;;;;;19.88;12.60;;;;;;;15.80;96.74;101758.69;5004765;28;20398;-70
2023/06/28 02:12:43;;;;;;;19.00;12.43;;;;;;;15.83;96.51;101763.59;4994024;28;20113;-69
2023/06/28 02:15:09;;;;;;;20.48;12.88;;;;;;;15.84;96.39;101768.06;4993937;28;20446;-70
2023/06/28 02:17:36;;;;;;;19.80;13.00;;;;;;;15.80;96.31;101752.25;4993982;28;20026;-70
2023/06/28 02:20:04;;;;;;;20.02;12.77;;;;;;;15.79;96.52;101756.19;4993619;28;20113;-69
2023/06/28 02:22:29;;;;;;;22.15;13.73;;;;;;;15.82;96.98;101761.13;4993780;28;20034;-70
2023/06/28 02:24:55;;;;;;;20.48;13.20;;;;;;;15.75;97.77;101754.06;4993623;28;20031;-70
2023/06/28 02:27:20;;;;;;;19.83;13.32;;;;;;;15.73;97.14;101755.50;4993767;28;20054;-69
2023/06/28 02:29:45;;;;;;;19.75;12.18;;;;;;;15.73;95.76;101756.34;4993261;28;20149;-69
2023/06/28 02:32:11;;;;;;;20.10;13.07;;;;;;;15.74;96.63;101754.34;4993446;28;20030;-70
2023/06/28 02:34:36;;;;;;;20.08;12.85;;;;;;;15.71;97.58;101755.00;4993582;28;20092;-69
2023/06/28 02:37:02;;;;;;;20.63;13.27;;;;;;;15.71;97.79;101750.25;4993090;28;20442;-70
2023/06/28 02:39:27;;;;;;;19.40;13.80;;;;;;;15.73;97.57;101747.13;4996708;28;20038;-70
2023/06/28 02:41:52;;;;;;;19.83;13.50;;;;;;;15.72;98.16;101754.69;4999409;28;20045;-70
2023/06/28 02:44:18;;;;;;;19.98;13.00;;;;;;;15.69;98.19;101751.72;5016768;28;20026;-69
2023/06/28 02:46:43;;;;;;;22.70;12.93;;;;;;;15.68;97.95;101748.09;5016470;28;20037;-69
2023/06/28 02:49:08;;;;;;;22.25;13.80;;;;;;;15.67;98.55;101746.47;5015176;28;20034;-69
2023/06/28 02:51:34;;;;;;;19.15;13.10;;;;;;;15.62;98.79;101749.38;5016375;28;20032;-70
2023/06/28 02:53:59;;;;;;;20.90;13.48;;;;;;;15.58;99.76;101751.16;5016365;28;20112;-70
2023/06/28 02:56:25;;;;;;;19.73;13.55;;;;;;;15.51;99.83;101748.81;5016212;28;20069;-69
2023/06/28 02:58:51;;;;;;;19.45;13.07;;;;;;;15.50;99.71;101755.53;5016259;28;20038;-70
2023/06/28 03:01:16;;;;;;;19.13;12.85;;;;;;;15.54;99.38;101756.53;5016471;28;20060;-71
2023/06/28 03:03:42;;;;;;;19.38;12.75;;;;;;;15.54;100.00;101748.16;5016048;28;20030;-70
2023/06/28 03:06:07;;;;;;;22.25;12.93;;;;;;;15.53;99.96;101743.75;5016133;28;20473;-69
2023/06/28 03:08:33;;;;;;;21.13;13.20;;;;;;;15.47;100.00;101745.00;5015857;28;20057;-69
2023/06/28 03:10:59;;;;;;;20.08;13.57;;;;;;;15.47;100.00;101749.78;5015709;28;20037;-69
2023/06/28 03:13:24;;;;;;;21.33;13.80;;;;;;;15.41;100.00;101746.28;5016157;28;20370;-69
2023/06/28 03:15:49;;;;;;;20.35;13.35;;;;;;;15.42;100.00;101742.34;5015461;28;20030;-69
2023/06/28 03:18:15;;;;;;;21.30;13.90;;;;;;;15.41;100.00;101746.28;5015275;28;20498;-69
2023/06/28 03:20:40;;;;;;;20.40;14.65;;;;;;;15.37;100.00;101742.47;5015316;28;20470;-69
2023/06/28 03:23:06;;;;;;;21.08;14.20;;;;;;;15.33;100.00;101739.50;5015978;28;20057;-69
2023/06/28 03:25:31;;;;;;;20.85;13.20;;;;;;;15.31;100.00;101741.78;5015365;28;20025;-69
2023/06/28 03:27:56;;;;;;;20.75;14.82;;;;;;;15.33;100.00;101735.91;5015608;28;20049;-69
2023/06/28 03:30:22;;;;;;;20.17;14.05;;;;;;;15.32;100.00;101737.84;5000926;28;20061;-69
2023/06/28 03:32:47;;;;;;;20.13;14.40;;;;;;;15.36;100.00;101738.88;4995814;28;20541;-69
2023/06/28 03:35:13;;;;;;;22.38;14.45;;;;;;;15.33;100.00;101733.91;4995787;28;20033;-69
2023/06/28 03:37:38;;;;;;;21.90;14.70;;;;;;;15.35;100.00;101728.84;4995654;28;20410;-69
2023/06/28 03:40:04;;;;;;;20.40;14.50;;;;;;;15.36;100.00;101730.50;4995555;28;20513;-69
2023/06/28 03:42:30;;;;;;;20.65;14.52;;;;;;;15.39;100.00;101735.47;4995530;28;20062;-69
2023/06/28 03:44:55;;;;;;;19.92;14.52;;;;;;;15.34;100.00;101729.19;4995443;28;20077;-70
2023/06/28 03:47:20;;;;;;;21.33;14.27;;;;;;;15.35;100.00;101734.44;4995454;28;20034;-69
2023/06/28 03:49:46;;;;;;;21.60;13.77;;;;;;;15.38;100.00;101732.97;4994917;28;20030;-69
2023/06/28 03:52:11;;;;;;;21.05;13.98;;;;;;;15.33;100.00;101727.53;4995362;28;20026;-70
2023/06/28 03:54:36;;;;;;;20.55;14.63;;;;;;;15.34;100.00;101726.41;4995584;28;20045;-69
2023/06/28 03:57:04;;;;;;;20.98;14.05;;;;;;;15.34;100.00;101735.56;4995493;28;20034;-69
2023/06/28 03:59:29;;;;;;;20.88;14.30;;;;;;;15.27;100.00;101727.66;4995134;28;20372;-69
2023/06/28 04:01:54;;;;;;;21.13;14.05;;;;;;;15.23;100.00;101735.00;4995141;28;20037;-69
2023/06/28 04:04:20;;;;;;;22.05;13.75;;;;;;;15.20;100.00;101724.50;4994935;28;20031;-69
2023/06/28 04:06:45;;;;;;;21.65;13.88;;;;;;;15.18;100.00;101723.97;4994660;28;20167;-69
2023/06/28 04:09:11;;;;;;;20.27;14.02;;;;;;;15.15;100.00;101730.19;4994921;28;20026;-70
2023/06/28 04:11:36;;;;;;;19.67;13.05;;;;;;;15.19;100.00;101733.19;4995020;28;20498;-70
2023/06/28 04:14:01;;;;;;;20.85;13.38;;;;;;;15.13;100.00;101718.53;4994914;28;20114;-70
2023/06/28 04:16:27;;;;;;;21.45;13.52;;;;;;;15.20;100.00;101724.50;4994812;28;20027;-70
2023/06/28 04:18:52;;;;;;;19.58;13.48;;;;;;;15.18;100.00;101726.75;4994543;28;20058;-69
2023/06/28 04:21:18;;;;;;;19.83;13.85;;;;;;;15.16;100.00;101726.25;4994627;28;20027;-70
2023/06/28 04:23:44;;;;;;;20.85;13.93;;;;;;;15.16;100.00;101725.44;4993272;28;20089;-69
2023/06/28 04:26:10;;;;;;;20.30;13.50;;;;;;;15.16;100.00;101726.25;4993329;28;20117;-70
2023/06/28 04:28:35;;;;;;;22.02;14.40;;;;;;;15.16;100.00;101726.25;4994399;28;20443;-69
2023/06/28 04:31:01;;;;;;;21.60;13.35;;;;;;;15.13;100.00;101724.91;4994856;28;20339;-70
2023/06/28 04:33:29;;;;;;;20.67;13.60;;;;;;;15.18;100.00;101732.34;4993149;28;20363;-69
2023/06/28 04:35:56;;;;;;;21.60;13.63;;;;;;;15.15;100.00;101723.78;4994967;28;20125;-70
2023/06/28 04:38:22;;;;;;;20.88;13.18;;;;;;;15.17;100.00;101721.50;4994458;28;20447;-70
2023/06/28 04:40:48;;;;;;;20.70;13.15;;;;;;;15.19;100.00;101720.06;4993200;28;20034;-70
2023/06/28 04:43:14;;;;;;;22.02;13.40;;;;;;;15.23;100.00;101723.88;4993200;28;20030;-70
2023/06/28 04:45:40;;;;;;;20.40;13.13;;;;;;;15.21;100.00;101719.75;4994250;28;20444;-69
2023/06/28 04:48:06;;;;;;;20.17;12.75;;;;;;;15.26;100.00;101726.00;4994208;28;20030;-69
2023/06/28 04:50:36;;;;;;;21.75;13.00;;;;;;;15.23;100.00;101723.03;4994407;28;20022;-70
2023/06/28 04:53:05;;;;;;;20.85;12.10;;;;;;;15.23;100.00;101723.88;4994217;28;20027;-70
2023/06/28 04:55:32;;;;;;;21.50;12.13;;;;;;;15.27;100.00;101724.84;4994291;28;20026;-70
2023/06/28 04:58:02;;;;;;;22.60;12.93;;;;;;;15.22;100.00;101724.16;4994395;28;20500;-70
2023/06/28 05:00:32;;;;;;;20.65;12.10;;;;;;;15.23;100.00;101735.00;4993247;28;20062;-70
2023/06/28 05:02:59;;;;;;;20.88;12.60;;;;;;;15.22;100.00;101733.38;4994249;28;20037;-70
2023/06/28 05:05:26;;;;;;;22.17;12.50;;;;;;;15.21;100.00;101733.69;4994135;28;20022;-70
2023/06/28 05:07:53;;;;;;;22.02;12.77;;;;;;;15.27;100.00;101736.00;4994039;28;20058;-70
2023/06/28 05:10:19;;;;;;;20.27;13.43;;;;;;;15.23;100.00;101739.75;5003130;28;20026;-70
2023/06/28 05:12:45;;;;;;;22.95;13.07;;;;;;;15.25;100.00;101735.53;5013598;28;20113;-70
2023/06/28 05:15:10;;;;;;;21.00;13.68;;;;;;;15.24;100.00;101736.66;5012079;28;20482;-70
2023/06/28 05:17:35;;;;;;;22.45;13.07;;;;;;;15.26;100.00;101727.97;5013364;28;20022;-70
2023/06/28 05:20:01;;;;;;;23.23;13.35;;;;;;;15.33;100.00;101738.69;5013222;28;20025;-71
2023/06/28 05:22:27;;;;;;;22.65;13.35;;;;;;;15.37;100.00;101740.53;5013250;28;20038;-70
2023/06/28 05:24:52;;;;;;;22.30;13.80;;;;;;;15.37;100.00;101732.16;5013159;28;20033;-71
2023/06/28 05:27:19;;;;;;;24.08;13.70;;;;;;;15.38;100.00;101736.59;5013127;28;20022;-70
2023/06/28 05:29:44;;;;;;;22.60;13.45;;;;;;;15.37;100.00;101725.75;5013040;28;20521;-70
2023/06/28 05:32:10;;;;;;;21.80;13.27;;;;;;;15.35;100.00;101719.69;5013080;28;20030;-72
2023/06/28 05:34:35;;;;;;;22.52;13.05;;;;;;;15.41;100.00;101724.78;5013226;28;20026;-70
2023/06/28 05:37:00;;;;;;;22.13;13.80;;;;;;;15.43;100.00;101722.50;5010905;28;20022;-71
2023/06/28 05:39:25;;;;;;;21.75;14.40;;;;;;;15.50;100.00;101724.84;4993256;28;20231;-70
2023/06/28 05:41:51;;;;;;;21.77;13.50;;;;;;;15.53;100.00;101720.59;4993196;28;20026;-71
2023/06/28 05:44:20;;;;;;;23.02;14.32;;;;;;;15.57;100.00;101718.84;4993290;28;20056;-71
2023/06/28 05:46:46;;;;;;;23.27;14.38;;;;;;;15.58;100.00;101709.34;5005705;28;20034;-72
2023/06/28 05:49:11;;;;;;;24.27;13.50;;;;;;;15.64;100.00;101716.41;5012923;28;20383;-71
2023/06/28 05:51:37;;;;;;;21.52;13.45;;;;;;;15.66;100.00;101704.91;5011415;28;20040;-71
2023/06/28 05:54:02;;;;;;;23.85;14.02;;;;;;;15.66;100.00;101716.91;5012745;28;20419;-71
2023/06/28 05:56:29;;;;;;;22.05;14.05;;;;;;;15.65;100.00;101712.47;5012684;28;20141;-71
2023/06/28 05:58:56;;;;;;;20.60;13.77;;;;;;;15.67;100.00;101721.34;5012915;28;20025;-71
2023/06/28 06:01:21;;;;;;;23.48;14.00;;;;;;;15.67;100.00;101721.34;5011636;28;20076;-71
2023/06/28 06:03:47;;;;;;;21.40;14.25;;;;;;;15.62;100.00;101717.88;5012664;28;20485;-71
2023/06/28 06:06:12;;;;;;;22.90;14.30;;;;;;;15.62;100.00;101717.88;5012555;28;20156;-71
2023/06/28 06:08:37;;;;;;;21.30;14.30;;;;;;;15.62;100.00;101724.25;5011154;28;20041;-71
2023/06/28 06:11:03;;;;;;;22.92;14.40;;;;;;;15.56;100.00;101725.56;5012572;28;20025;-71
2023/06/28 06:13:29;;;;;;;22.90;14.45;;;;;;;15.58;100.00;101726.88;5012380;28;20060;-71
2023/06/28 06:15:54;;;;;;;23.02;14.90;;;;;;;15.58;100.00;101723.28;5007361;28;20185;-71
2023/06/28 06:18:20;;;;;;;25.10;16.63;;;;;;;15.55;100.00;101719.13;4992995;28;20460;-71
2023/06/28 06:20:45;;;;;;;24.38;14.27;;;;;;;15.55;100.00;101730.28;4992939;28;20032;-71
2023/06/28 06:23:10;;;;;;;23.30;15.00;;;;;;;15.56;100.00;101720.78;4992678;28;20502;-71
2023/06/28 06:25:36;;;;;;;23.40;15.07;;;;;;;15.64;100.00;101723.94;4992775;28;20029;-71
2023/06/28 06:28:01;;;;;;;24.33;15.65;;;;;;;15.68;100.00;101720.19;4992680;28;20037;-71
2023/06/28 06:30:26;;;;;;;23.40;15.18;;;;;;;15.74;100.00;101716.13;4992440;28;20152;-71
2023/06/28 06:32:52;;;;;;;23.38;15.02;;;;;;;15.85;100.00;101715.91;4992656;28;20018;-71
2023/06/28 06:35:17;;;;;;;23.15;15.15;;;;;;;15.90;100.00;101712.94;4992795;28;20386;-70
2023/06/28 06:37:45;;;;;;;22.33;14.63;;;;;;;15.98;100.00;101709.38;4992794;28;20030;-70
2023/06/28 06:40:11;;;;;;;21.80;14.18;;;;;;;16.04;100.00;101701.69;4992695;28;20037;-71
2023/06/28 06:42:36;;;;;;;20.88;14.30;;;;;;;16.13;100.00;101704.50;4992817;28;20030;-71
2023/06/28 06:45:02;;;;;;;23.42;14.73;;;;;;;16.17;100.00;101705.50;4992552;28;20030;-70
2023/06/28 06:47:27;;;;;;;22.45;14.57;;;;;;;16.26;100.00;101709.13;4992546;28;20449;-70
2023/06/28 06:49:52;;;;;;;21.98;14.85;;;;;;;16.28;100.00;101711.63;4992552;28;20030;-69
2023/06/28 06:52:18;;;;;;;21.77;14.02;;;;;;;16.30;100.00;101720.47;4992748;28;20113;-69
2023/06/28 06:54:43;;;;;;;22.73;14.05;;;;;;;16.33;100.00;101717.03;4992446;28;20065;-69
2023/06/28 06:57:09;;;;;;;22.83;14.45;;;;;;;16.27;100.00;101719.16;4992441;28;20058;-70
2023/06/28 06:59:34;;;;;;;22.30;13.30;;;;;;;16.29;100.00;101719.66;4992396;28;20026;-69
2023/06/28 07:01:59;;;;;;;21.90;13.77;;;;;;;16.29;100.00;101722.47;4992487;28;20732;-69
2023/06/28 07:04:25;;;;;;;23.52;14.07;;;;;;;16.34;100.00;101724.28;4992383;28;20511;-69
2023/06/28 07:06:50;;;;;;;23.27;13.95;;;;;;;16.35;100.00;101721.16;4990945;28;20070;-69
2023/06/28 07:09:17;;;;;;;23.73;13.82;;;;;;;16.34;100.00;101727.06;4992375;28;20030;-70
2023/06/28 07:11:44;;;;;;;25.48;14.20;;;;;;;16.34;100.00;101733.47;4992310;28;20390;-71
2023/06/28 07:14:09;;;;;;;23.08;13.38;;;;;;;16.38;100.00;101725.28;4992618;28;20026;-70
2023/06/28 07:16:35;;;;;;;22.88;14.13;;;;;;;16.41;100.00;101732.19;4996929;28;20438;-70
2023/06/28 07:19:01;;;;;;;25.90;14.73;;;;;;;16.43;100.00;101727.09;5011947;28;20030;-70
2023/06/28 07:21:26;;;;;;;23.23;14.63;;;;;;;16.46;100.00;101732.88;5004610;28;20033;-72
2023/06/28 07:23:53;;;;;;;21.98;13.52;;;;;;;16.52;100.00;101723.16;4992826;28;20421;-70
2023/06/28 07:26:20;;;;;;;23.45;14.48;;;;;;;16.58;100.00;101729.44;4996018;28;20035;-70
2023/06/28 07:28:45;;;;;;;23.13;14.38;;;;;;;16.62;100.00;101726.81;4996457;28;20037;-71
2023/06/28 07:31:10;;;;;;;22.52;14.77;;;;;;;16.67;100.00;101735.03;4995878;28;20390;-71
2023/06/28 07:33:35;;;;;;;23.02;14.45;;;;;;;16.67;100.00;101724.69;4995572;28;20033;-70
2023/06/28 07:36:01;;;;;;;23.02;14.57;;;;;;;16.75;100.00;101725.00;4995639;28;20026;-70
2023/06/28 07:38:26;;;;;;;23.15;14.80;;;;;;;16.76;100.00;101723.88;4995365;28;20125;-70
2023/06/28 07:40:53;;;;;;;23.75;15.32;;;;;;;16.75;100.00;101725.84;4995405;28;20030;-70
2023/06/28 07:43:19;;;;;;;23.10;15.50;;;;;;;16.79;100.00;101718.44;4995592;28;20022;-70
2023/06/28 07:45:45;;;;;;;23.88;15.18;;;;;;;16.82;100.00;101725.34;4995389;28;20100;-70
2023/06/28 07:48:11;;;;;;;23.50;15.45;;;;;;;16.84;100.00;101717.44;4995102;28;20449;-69
2023/06/28 07:50:36;;;;;;;23.88;15.50;;;;;;;16.86;100.00;101722.72;4995197;28;20510;-69
2023/06/28 07:53:02;;;;;;;23.08;14.68;;;;;;;16.84;100.00;101731.44;4994870;28;20042;-69
2023/06/28 07:55:30;;;;;;;22.65;14.77;;;;;;;16.93;100.00;101734.25;4995020;28;20088;-69
2023/06/28 07:57:58;;;;;;;23.20;15.02;;;;;;;16.97;100.00;101732.44;4995148;28;20030;-69
2023/06/28 08:00:27;;;;;;;23.15;14.80;;;;;;;17.03;100.00;101727.53;4994863;28;20360;-70
2023/06/28 08:02:52;;;;;;;22.50;14.48;;;;;;;17.11;100.00;101723.91;4994852;28;20022;-69
2023/06/28 08:05:19;;;;;;;23.52;14.90;;;;;;;17.14;100.00;101734.44;4994903;28;20125;-70
2023/06/28 08:07:44;;;;;;;23.65;15.15;;;;;;;17.11;100.00;101735.06;4994655;28;20030;-70
2023/06/28 08:10:10;;;;;;;21.55;14.07;;;;;;;17.11;100.00;101735.06;4994707;28;20033;-70
2023/06/28 08:12:35;;;;;;;22.60;14.35;;;;;;;17.11;100.00;101726.69;4994715;28;20479;-70
2023/06/28 08:15:00;;;;;;;24.95;15.15;;;;;;;17.14;100.00;101723.25;4994695;28;20475;-70
2023/06/28 08:17:26;;;;;;;23.15;14.45;;;;;;;17.25;100.00;101730.16;4994690;28;20110;-70
2023/06/28 08:19:54;;;;;;;22.80;14.50;;;;;;;17.25;100.00;101721.75;4994541;28;20022;-69
2023/06/28 08:22:19;;;;;;;22.60;14.00;;;;;;;17.21;100.00;101719.97;4994603;28;20022;-70
2023/06/28 08:24:44;;;;;;;24.17;14.32;;;;;;;17.39;100.00;101723.53;4994543;28;20023;-71
2023/06/28 08:27:10;;;;;;;22.08;14.52;;;;;;;17.46;100.00;101721.88;4994442;28;20096;-70
2023/06/28 08:29:35;;;;;;;22.02;15.13;;;;;;;17.53;99.75;101717.75;4994361;28;20228;-71
2023/06/28 08:32:00;;;;;;;23.00;14.80;;;;;;;17.51;98.31;101723.69;4994251;28;20106;-70
2023/06/28 08:34:25;;;;;;;22.30;14.18;;;;;;;17.57;96.81;101729.94;4994590;28;20026;-70
2023/06/28 08:36:51;;;;;;;22.55;14.40;;;;;;;17.53;97.21;101729.78;4994205;28;20018;-70
2023/06/28 08:39:16;;;;;;;23.25;14.68;;;;;;;17.52;97.75;101741.31;4994129;28;20178;-70
2023/06/28 08:41:43;;;;;;;22.17;14.48;;;;;;;17.42;97.57;101736.88;4994212;28;20034;-70
2023/06/28 08:44:12;;;;;;;23.33;14.73;;;;;;;17.44;97.47;101734.56;4998639;28;20025;-70
2023/06/28 08:46:42;;;;;;;23.52;14.43;;;;;;;17.45;97.84;101734.22;5013678;28;20034;-70
2023/06/28 08:49:08;;;;;;;22.90;14.57;;;;;;;17.45;97.77;101733.41;5012460;28;20106;-70
2023/06/28 08:51:33;;;;;;;21.95;14.15;;;;;;;17.46;98.41;101724.69;5013539;28;20033;-71
2023/06/28 08:53:59;;;;;;;24.90;14.98;;;;;;;17.51;98.43;101734.06;5013482;28;20695;-70
2023/06/28 08:56:27;;;;;;;21.08;13.70;;;;;;;17.62;97.94;101729.75;5012355;28;20026;-70
2023/06/28 08:58:53;;;;;;;22.48;14.30;;;;;;;17.71;96.57;101724.94;5013484;28;20038;-70
2023/06/28 09:01:20;;;;;;;23.50;14.38;;;;;;;17.85;96.05;101716.38;5012114;28;20056;-70
2023/06/28 09:03:46;;;;;;;20.95;13.63;;;;;;;17.99;93.56;101721.78;5013448;28;20417;-71
2023/06/28 09:06:13;;;;;;;20.73;13.43;;;;;;;18.14;93.00;101713.94;5013338;28;20339;-71
2023/06/28 09:08:39;;;;;;;22.92;13.80;;;;;;;18.22;93.31;101713.91;5013469;28;20076;-70
2023/06/28 09:11:05;;;;;;;21.55;13.90;;;;;;;18.41;92.61;101721.06;5013354;28;20026;-71
2023/06/28 09:13:30;;;;;;;22.20;13.63;;;;;;;18.55;90.87;101723.63;5013195;28;20028;-71
2023/06/28 09:15:56;;;;;;;21.75;13.52;;;;;;;18.75;90.55;101719.19;4993821;28;20161;-70
2023/06/28 09:18:22;;;;;;;22.40;13.60;;;;;;;18.92;90.30;101717.41;4993548;28;20108;-70
2023/06/28 09:20:53;;;;;;;22.60;14.40;;;;;;;18.93;87.81;101705.06;4993489;28;20078;-70
2023/06/28 09:23:26;;;;;;;23.40;13.98;;;;;;;19.10;88.18;101721.72;4993458;28;20022;-70
2023/06/28 09:25:52;;;;;;;21.80;14.13;;;;;;;19.10;88.08;101726.53;4993536;28;20201;-71
2023/06/28 09:28:19;;;;;;;23.38;14.52;;;;;;;18.97;87.39;101715.25;4993450;28;20030;-71
2023/06/28 09:30:54;;;;;;;22.15;14.07;;;;;;;18.82;87.46;101715.84;4991783;28;20060;-71
2023/06/28 09:33:19;;;;;;;22.35;14.43;;;;;;;18.70;86.88;101713.78;4993261;28;20030;-71
2023/06/28 09:35:45;;;;;;;23.00;13.98;;;;;;;18.62;87.94;101720.25;4993129;28;20030;-70
2023/06/28 09:38:10;;;;;;;21.10;13.50;;;;;;;18.58;87.36;101716.50;4993164;28;20118;-70
2023/06/28 09:40:36;;;;;;;25.15;13.88;;;;;;;18.55;87.11;101712.41;4993125;28;20030;-70
2023/06/28 09:43:02;;;;;;;22.40;13.98;;;;;;;18.59;87.16;101721.75;4993079;28;20032;-71
2023/06/28 09:45:35;;;;;;;22.33;13.95;;;;;;;18.59;88.20;101723.75;4992055;28;20124;-70
2023/06/28 09:48:02;;;;;;;24.80;14.00;;;;;;;18.70;88.81;101725.00;4992858;28;20113;-70
2023/06/28 09:50:43;;;;;;;21.90;13.23;;;;;;;18.86;85.71;101722.38;4993083;28;20514;-70
2023/06/28 09:53:13;;;;;;;21.02;13.15;;;;;;;18.90;84.23;101714.94;4991492;28;20402;-70
2023/06/28 09:55:43;;;;;;;21.10;12.82;;;;;;;19.04;84.92;101709.09;4992909;28;20030;-70
2023/06/28 09:58:14;;;;;;;21.08;13.00;;;;;;;19.31;84.49;101704.88;4991850;28;20088;-71
2023/06/28 10:00:41;;;;;;;21.33;13.30;;;;;;;19.67;85.24;101708.13;4993140;28;20109;-71
2023/06/28 10:03:11;;;;;;;21.58;13.23;;;;;;;19.98;82.18;101706.78;4992924;28;20060;-70
2023/06/28 10:05:39;;;;;;;22.25;13.40;;;;;;;20.42;84.48;101703.38;4993043;28;20120;-70
2023/06/28 10:08:13;;;;;;;22.00;13.18;;;;;;;20.62;78.81;101701.59;4992682;28;20027;-70
2023/06/28 10:10:40;;;;;;;22.33;12.75;;;;;;;20.84;77.60;101699.47;4992868;28;20113;-70
2023/06/28 10:13:09;;;;;;;22.00;12.55;;;;;;;21.02;75.77;101700.81;4992937;28;20038;-72
2023/06/28 10:15:48;;;;;;;23.45;12.95;;;;;;;21.39;77.77;101702.63;4991402;28;20081;-70
2023/06/28 10:18:15;;;;;;;20.80;12.38;;;;;;;21.56;75.38;101701.47;4992586;28;20026;-70
2023/06/28 10:20:41;;;;;;;21.48;12.30;;;;;;;21.76;72.96;101698.78;4973215;28;20035;-71
2023/06/28 10:23:10;;;;;;;25.67;12.82;;;;;;;21.83;73.45;101696.16;4971824;28;20389;-70
2023/06/28 10:25:35;;;;;;;20.85;11.60;;;;;;;21.95;70.61;101700.88;4973267;28;20055;-70
2023/06/28 10:28:01;;;;;;;21.05;12.30;;;;;;;21.97;69.96;101695.69;4988163;28;20054;-70
2023/06/28 10:30:27;;;;;;;21.00;12.18;;;;;;;21.92;68.72;101693.16;4973447;28;20054;-70
2023/06/28 10:32:53;;;;;;;21.30;12.52;;;;;;;21.87;69.14;101693.44;4973677;28;20030;-71
2023/06/28 10:35:19;;;;;;;21.10;11.80;;;;;;;21.87;70.13;101696.25;4973244;28;20085;-69
2023/06/28 10:37:45;;;;;;;22.15;12.25;;;;;;;22.10;70.38;101696.44;4973480;28;20023;-70
2023/06/28 10:40:11;;;;;;;20.50;12.23;;;;;;;22.28;69.71;101700.50;4973156;28;20031;-70
2023/06/28 10:42:40;;;;;;;21.65;11.85;;;;;;;22.38;65.89;101695.47;4973372;28;20049;-70
2023/06/28 10:45:08;;;;;;;21.65;12.05;;;;;;;22.43;66.61;101689.56;4973167;28;20096;-70
2023/06/28 10:47:34;;;;;;;24.95;12.10;;;;;;;22.60;68.47;101693.97;4973074;28;20023;-70
2023/06/28 10:50:11;;;;;;;20.90;11.93;;;;;;;22.94;66.78;101696.31;4971678;28;20394;-71
2023/06/28 10:52:47;;;;;;;21.23;11.73;;;;;;;23.01;66.01;101685.16;4973429;28;20027;-70
2023/06/28 10:55:17;;;;;;;22.70;12.50;;;;;;;22.99;63.14;101698.81;4973397;28;20023;-70
2023/06/28 10:57:42;;;;;;;21.17;11.88;;;;;;;23.10;64.60;101684.91;4973060;28;20026;-71
2023/06/28 11:00:29;;;;;;;20.27;12.15;;;;;;;23.12;64.38;101682.56;4975517;28;20042;-70